Keota, Oklahoma
Current Conditions -  °F | °C
As of 6:55 AM on Sunday 23 Nov 2014 (Local Time) from KGZL Reporting Station
Scattered Clouds Scattered Clouds  
Wind Chill: 57°   Ceiling: Unl
Heat Index: 57°   Visibility: 10mi
Dew Point: 55°   Wind: 6mph
Humidity: 94%   Direction: 130°SE
Pressure: 29.56"   Gusts: NA
Location:  35.26°N, 94.92°W
Report Text: KGZL 231255Z AUTO 13005KT 10SM FEW016 SCT025 SCT039 14/13 A2956 RMK AO2
Loading
Personal Weather Stations






























Interactive Weather Map New forecast layout! Learn more

10-Day Weather Forecast

Advertisements
Track Severe Weather on mobile